sensor_id;sensor_type;location;lat;lon;timestamp;P1;durP1;ratioP1;P2;durP2;ratioP2
36061;SDS011;22123;52.412;20.970;2023-06-22T00:00:50;6.78;;;3.72;;
36061;SDS011;22123;52.412;20.970;2023-06-22T00:03:19;6.20;;;3.50;;
36061;SDS011;22123;52.412;20.970;2023-06-22T00:05:46;6.72;;;4.78;;
36061;SDS011;22123;52.412;20.970;2023-06-22T00:08:13;6.72;;;4.35;;
36061;SDS011;22123;52.412;20.970;2023-06-22T00:10:40;8.25;;;4.05;;
36061;SDS011;22123;52.412;20.970;2023-06-22T00:13:07;4.63;;;3.30;;
36061;SDS011;22123;52.412;20.970;2023-06-22T00:15:33;8.05;;;4.10;;
36061;SDS011;22123;52.412;20.970;2023-06-22T00:18:00;7.00;;;4.00;;
36061;SDS011;22123;52.412;20.970;2023-06-22T00:20:26;9.77;;;5.03;;
36061;SDS011;22123;52.412;20.970;2023-06-22T00:22:52;5.53;;;3.75;;
36061;SDS011;22123;52.412;20.970;2023-06-22T00:25:18;5.78;;;4.25;;
36061;SDS011;22123;52.412;20.970;2023-06-22T00:27:44;6.32;;;4.07;;
36061;SDS011;22123;52.412;20.970;2023-06-22T00:32:36;8.77;;;4.22;;
36061;SDS011;22123;52.412;20.970;2023-06-22T00:35:02;9.00;;;4.63;;
36061;SDS011;22123;52.412;20.970;2023-06-22T00:37:28;6.85;;;4.95;;
36061;SDS011;22123;52.412;20.970;2023-06-22T00:42:19;8.98;;;4.13;;
36061;SDS011;22123;52.412;20.970;2023-06-22T00:44:45;8.57;;;4.20;;
36061;SDS011;22123;52.412;20.970;2023-06-22T00:47:11;8.57;;;4.22;;
36061;SDS011;22123;52.412;20.970;2023-06-22T00:49:41;6.50;;;4.70;;
36061;SDS011;22123;52.412;20.970;2023-06-22T00:52:07;8.52;;;5.30;;
36061;SDS011;22123;52.412;20.970;2023-06-22T00:54:37;8.43;;;5.35;;
36061;SDS011;22123;52.412;20.970;2023-06-22T00:57:03;6.47;;;3.60;;
36061;SDS011;22123;52.412;20.970;2023-06-22T00:59:29;7.60;;;4.45;;
36061;SDS011;22123;52.412;20.970;2023-06-22T01:01:56;10.35;;;4.85;;
36061;SDS011;22123;52.412;20.970;2023-06-22T01:04:24;6.32;;;3.72;;
36061;SDS011;22123;52.412;20.970;2023-06-22T01:10:05;7.95;;;4.50;;
36061;SDS011;22123;52.412;20.970;2023-06-22T01:12:38;5.97;;;3.90;;
36061;SDS011;22123;52.412;20.970;2023-06-22T01:15:08;6.65;;;4.75;;
36061;SDS011;22123;52.412;20.970;2023-06-22T01:17:40;6.18;;;3.60;;
36061;SDS011;22123;52.412;20.970;2023-06-22T01:20:08;8.63;;;4.05;;
36061;SDS011;22123;52.412;20.970;2023-06-22T01:22:39;9.35;;;4.60;;
36061;SDS011;22123;52.412;20.970;2023-06-22T01:25:36;5.82;;;4.20;;
36061;SDS011;22123;52.412;20.970;2023-06-22T01:28:17;7.07;;;4.18;;
36061;SDS011;22123;52.412;20.970;2023-06-22T01:30:49;6.03;;;4.78;;
36061;SDS011;22123;52.412;20.970;2023-06-22T01:33:17;6.18;;;3.83;;
36061;SDS011;22123;52.412;20.970;2023-06-22T01:35:43;7.75;;;4.47;;
36061;SDS011;22123;52.412;20.970;2023-06-22T01:38:09;7.40;;;4.93;;
36061;SDS011;22123;52.412;20.970;2023-06-22T01:40:36;5.75;;;3.97;;
36061;SDS011;22123;52.412;20.970;2023-06-22T01:43:03;7.63;;;4.70;;
36061;SDS011;22123;52.412;20.970;2023-06-22T01:45:29;5.18;;;3.63;;
36061;SDS011;22123;52.412;20.970;2023-06-22T01:47:55;7.88;;;3.53;;
36061;SDS011;22123;52.412;20.970;2023-06-22T01:50:22;8.13;;;4.07;;
36061;SDS011;22123;52.412;20.970;2023-06-22T01:55:13;4.68;;;4.15;;
36061;SDS011;22123;52.412;20.970;2023-06-22T01:57:39;7.60;;;4.03;;
36061;SDS011;22123;52.412;20.970;2023-06-22T02:05:39;6.18;;;4.07;;
36061;SDS011;22123;52.412;20.970;2023-06-22T02:08:12;8.20;;;3.55;;
36061;SDS011;22123;52.412;20.970;2023-06-22T02:10:41;7.50;;;4.15;;
36061;SDS011;22123;52.412;20.970;2023-06-22T02:13:08;5.20;;;3.50;;
36061;SDS011;22123;52.412;20.970;2023-06-22T02:15:35;4.13;;;3.60;;
36061;SDS011;22123;52.412;20.970;2023-06-22T02:18:02;7.78;;;4.15;;
36061;SDS011;22123;52.412;20.970;2023-06-22T02:20:28;7.88;;;3.75;;
36061;SDS011;22123;52.412;20.970;2023-06-22T02:25:20;6.75;;;3.83;;
36061;SDS011;22123;52.412;20.970;2023-06-22T02:27:45;7.65;;;4.63;;
36061;SDS011;22123;52.412;20.970;2023-06-22T02:30:12;7.90;;;3.80;;
36061;SDS011;22123;52.412;20.970;2023-06-22T02:32:38;9.25;;;4.18;;
36061;SDS011;22123;52.412;20.970;2023-06-22T02:37:30;6.30;;;3.83;;
36061;SDS011;22123;52.412;20.970;2023-06-22T02:39:56;5.75;;;3.85;;
36061;SDS011;22123;52.412;20.970;2023-06-22T02:44:48;10.80;;;4.45;;
36061;SDS011;22123;52.412;20.970;2023-06-22T02:49:41;5.25;;;4.10;;
36061;SDS011;22123;52.412;20.970;2023-06-22T02:54:32;10.55;;;5.07;;
36061;SDS011;22123;52.412;20.970;2023-06-22T02:56:58;9.27;;;6.10;;
36061;SDS011;22123;52.412;20.970;2023-06-22T03:01:50;11.43;;;6.10;;
36061;SDS011;22123;52.412;20.970;2023-06-22T03:04:16;9.50;;;5.13;;
36061;SDS011;22123;52.412;20.970;2023-06-22T03:09:07;11.15;;;5.93;;
36061;SDS011;22123;52.412;20.970;2023-06-22T03:11:33;10.05;;;6.10;;
36061;SDS011;22123;52.412;20.970;2023-06-22T03:14:00;10.00;;;5.82;;
36061;SDS011;22123;52.412;20.970;2023-06-22T03:16:26;7.45;;;5.00;;
36061;SDS011;22123;52.412;20.970;2023-06-22T03:18:53;12.70;;;6.95;;
36061;SDS011;22123;52.412;20.970;2023-06-22T03:23:48;9.70;;;6.13;;
36061;SDS011;22123;52.412;20.970;2023-06-22T03:26:16;14.95;;;5.18;;
36061;SDS011;22123;52.412;20.970;2023-06-22T03:28:43;11.60;;;4.95;;
36061;SDS011;22123;52.412;20.970;2023-06-22T03:31:09;10.30;;;5.85;;
36061;SDS011;22123;52.412;20.970;2023-06-22T03:33:34;11.30;;;6.70;;
36061;SDS011;22123;52.412;20.970;2023-06-22T03:38:26;9.32;;;5.78;;
36061;SDS011;22123;52.412;20.970;2023-06-22T03:40:52;13.77;;;7.40;;
36061;SDS011;22123;52.412;20.970;2023-06-22T03:43:18;8.88;;;5.28;;
36061;SDS011;22123;52.412;20.970;2023-06-22T03:45:44;13.02;;;6.90;;
36061;SDS011;22123;52.412;20.970;2023-06-22T03:48:09;11.13;;;6.80;;
36061;SDS011;22123;52.412;20.970;2023-06-22T03:50:35;10.13;;;6.00;;
36061;SDS011;22123;52.412;20.970;2023-06-22T03:55:27;11.70;;;6.25;;
36061;SDS011;22123;52.412;20.970;2023-06-22T04:00:18;11.13;;;6.45;;
36061;SDS011;22123;52.412;20.970;2023-06-22T04:05:10;7.95;;;5.15;;
36061;SDS011;22123;52.412;20.970;2023-06-22T04:10:01;10.25;;;4.95;;
36061;SDS011;22123;52.412;20.970;2023-06-22T04:12:27;10.95;;;6.75;;
36061;SDS011;22123;52.412;20.970;2023-06-22T04:14:53;7.50;;;5.55;;
36061;SDS011;22123;52.412;20.970;2023-06-22T04:17:19;7.95;;;5.53;;
36061;SDS011;22123;52.412;20.970;2023-06-22T04:19:45;12.50;;;5.63;;
36061;SDS011;22123;52.412;20.970;2023-06-22T04:22:11;10.52;;;4.72;;
36061;SDS011;22123;52.412;20.970;2023-06-22T04:24:37;8.68;;;4.63;;
36061;SDS011;22123;52.412;20.970;2023-06-22T04:27:03;8.73;;;5.13;;
36061;SDS011;22123;52.412;20.970;2023-06-22T04:29:29;10.32;;;5.80;;
36061;SDS011;22123;52.412;20.970;2023-06-22T04:31:56;9.27;;;5.80;;
36061;SDS011;22123;52.412;20.970;2023-06-22T04:34:22;9.40;;;4.80;;
36061;SDS011;22123;52.412;20.970;2023-06-22T04:36:48;8.32;;;5.65;;
36061;SDS011;22123;52.412;20.970;2023-06-22T04:39:14;10.55;;;5.63;;
36061;SDS011;22123;52.412;20.970;2023-06-22T04:41:40;9.90;;;5.72;;
36061;SDS011;22123;52.412;20.970;2023-06-22T04:44:06;12.10;;;5.05;;
36061;SDS011;22123;52.412;20.970;2023-06-22T04:46:39;9.48;;;5.07;;
36061;SDS011;22123;52.412;20.970;2023-06-22T04:49:06;8.45;;;5.63;;
36061;SDS011;22123;52.412;20.970;2023-06-22T04:51:34;7.85;;;4.63;;
36061;SDS011;22123;52.412;20.970;2023-06-22T04:54:01;11.65;;;5.22;;
36061;SDS011;22123;52.412;20.970;2023-06-22T04:56:27;10.02;;;5.55;;
36061;SDS011;22123;52.412;20.970;2023-06-22T04:58:53;9.77;;;4.32;;
36061;SDS011;22123;52.412;20.970;2023-06-22T05:01:19;11.23;;;5.40;;
36061;SDS011;22123;52.412;20.970;2023-06-22T05:03:45;6.00;;;3.45;;
36061;SDS011;22123;52.412;20.970;2023-06-22T05:06:11;10.27;;;4.28;;
36061;SDS011;22123;52.412;20.970;2023-06-22T05:08:37;9.23;;;5.25;;
36061;SDS011;22123;52.412;20.970;2023-06-22T05:11:02;8.23;;;5.20;;
36061;SDS011;22123;52.412;20.970;2023-06-22T05:13:28;7.55;;;4.68;;
36061;SDS011;22123;52.412;20.970;2023-06-22T05:15:54;6.97;;;4.53;;
36061;SDS011;22123;52.412;20.970;2023-06-22T05:18:20;6.35;;;4.28;;
36061;SDS011;22123;52.412;20.970;2023-06-22T05:20:46;6.38;;;4.47;;
36061;SDS011;22123;52.412;20.970;2023-06-22T05:23:12;5.88;;;3.80;;
36061;SDS011;22123;52.412;20.970;2023-06-22T05:25:38;6.82;;;4.57;;
36061;SDS011;22123;52.412;20.970;2023-06-22T05:28:04;7.72;;;4.15;;
36061;SDS011;22123;52.412;20.970;2023-06-22T05:30:29;6.82;;;3.88;;
36061;SDS011;22123;52.412;20.970;2023-06-22T05:32:55;5.25;;;3.67;;
36061;SDS011;22123;52.412;20.970;2023-06-22T05:35:21;7.85;;;4.95;;
36061;SDS011;22123;52.412;20.970;2023-06-22T05:37:47;5.38;;;3.58;;
36061;SDS011;22123;52.412;20.970;2023-06-22T05:40:13;5.50;;;3.90;;
36061;SDS011;22123;52.412;20.970;2023-06-22T05:42:39;5.50;;;3.88;;
36061;SDS011;22123;52.412;20.970;2023-06-22T05:45:05;4.72;;;3.03;;
36061;SDS011;22123;52.412;20.970;2023-06-22T05:47:31;8.82;;;4.63;;
36061;SDS011;22123;52.412;20.970;2023-06-22T05:49:57;8.00;;;4.95;;
36061;SDS011;22123;52.412;20.970;2023-06-22T05:52:23;6.65;;;3.97;;
36061;SDS011;22123;52.412;20.970;2023-06-22T05:54:49;5.22;;;3.78;;
36061;SDS011;22123;52.412;20.970;2023-06-22T05:57:15;8.95;;;4.38;;
36061;SDS011;22123;52.412;20.970;2023-06-22T05:59:40;8.38;;;3.95;;
36061;SDS011;22123;52.412;20.970;2023-06-22T06:02:06;6.25;;;3.58;;
36061;SDS011;22123;52.412;20.970;2023-06-22T06:04:32;4.95;;;3.80;;
36061;SDS011;22123;52.412;20.970;2023-06-22T06:06:58;5.00;;;3.55;;
36061;SDS011;22123;52.412;20.970;2023-06-22T06:09:24;4.85;;;3.45;;
36061;SDS011;22123;52.412;20.970;2023-06-22T06:11:50;5.03;;;2.78;;
36061;SDS011;22123;52.412;20.970;2023-06-22T06:14:16;7.07;;;3.85;;
36061;SDS011;22123;52.412;20.970;2023-06-22T06:16:42;5.80;;;3.58;;
36061;SDS011;22123;52.412;20.970;2023-06-22T06:19:07;4.63;;;3.65;;
36061;SDS011;22123;52.412;20.970;2023-06-22T06:21:33;6.18;;;3.75;;
36061;SDS011;22123;52.412;20.970;2023-06-22T06:23:59;7.40;;;3.70;;
36061;SDS011;22123;52.412;20.970;2023-06-22T06:26:25;5.70;;;4.00;;
36061;SDS011;22123;52.412;20.970;2023-06-22T06:28:51;5.30;;;3.83;;
36061;SDS011;22123;52.412;20.970;2023-06-22T06:31:17;6.35;;;3.75;;
36061;SDS011;22123;52.412;20.970;2023-06-22T06:33:43;3.95;;;3.25;;
36061;SDS011;22123;52.412;20.970;2023-06-22T06:36:08;5.45;;;3.25;;
36061;SDS011;22123;52.412;20.970;2023-06-22T06:38:34;6.95;;;3.38;;
36061;SDS011;22123;52.412;20.970;2023-06-22T06:41:00;5.10;;;3.22;;
36061;SDS011;22123;52.412;20.970;2023-06-22T06:43:26;5.55;;;2.88;;
36061;SDS011;22123;52.412;20.970;2023-06-22T06:45:52;4.65;;;2.58;;
36061;SDS011;22123;52.412;20.970;2023-06-22T06:48:18;3.58;;;2.47;;
36061;SDS011;22123;52.412;20.970;2023-06-22T06:50:44;3.83;;;2.42;;
36061;SDS011;22123;52.412;20.970;2023-06-22T06:53:10;6.15;;;2.85;;
36061;SDS011;22123;52.412;20.970;2023-06-22T06:55:36;3.70;;;2.70;;
36061;SDS011;22123;52.412;20.970;2023-06-22T06:58:02;2.67;;;2.47;;
36061;SDS011;22123;52.412;20.970;2023-06-22T07:00:28;5.55;;;2.83;;
36061;SDS011;22123;52.412;20.970;2023-06-22T07:02:53;2.90;;;2.40;;
36061;SDS011;22123;52.412;20.970;2023-06-22T07:05:19;6.38;;;2.70;;
36061;SDS011;22123;52.412;20.970;2023-06-22T07:07:45;2.88;;;2.15;;
36061;SDS011;22123;52.412;20.970;2023-06-22T07:10:11;3.47;;;3.05;;
36061;SDS011;22123;52.412;20.970;2023-06-22T07:12:37;3.85;;;2.92;;
36061;SDS011;22123;52.412;20.970;2023-06-22T07:15:04;3.60;;;2.08;;
36061;SDS011;22123;52.412;20.970;2023-06-22T07:17:31;3.20;;;2.80;;
36061;SDS011;22123;52.412;20.970;2023-06-22T07:19:57;2.50;;;2.00;;
36061;SDS011;22123;52.412;20.970;2023-06-22T07:22:23;4.07;;;2.20;;
36061;SDS011;22123;52.412;20.970;2023-06-22T07:24:49;2.60;;;2.30;;
36061;SDS011;22123;52.412;20.970;2023-06-22T07:27:15;5.25;;;2.28;;
36061;SDS011;22123;52.412;20.970;2023-06-22T07:29:41;2.38;;;2.15;;
36061;SDS011;22123;52.412;20.970;2023-06-22T07:32:07;2.45;;;2.17;;
36061;SDS011;22123;52.412;20.970;2023-06-22T07:34:33;3.28;;;1.63;;
36061;SDS011;22123;52.412;20.970;2023-06-22T07:36:58;2.38;;;1.60;;
36061;SDS011;22123;52.412;20.970;2023-06-22T07:39:24;2.13;;;1.70;;
36061;SDS011;22123;52.412;20.970;2023-06-22T07:41:50;2.03;;;1.60;;
36061;SDS011;22123;52.412;20.970;2023-06-22T07:44:16;1.90;;;1.70;;
36061;SDS011;22123;52.412;20.970;2023-06-22T07:46:42;2.38;;;1.73;;
36061;SDS011;22123;52.412;20.970;2023-06-22T07:49:08;2.97;;;1.63;;
36061;SDS011;22123;52.412;20.970;2023-06-22T07:51:34;2.03;;;1.83;;
36061;SDS011;22123;52.412;20.970;2023-06-22T07:54:00;1.85;;;1.63;;
36061;SDS011;22123;52.412;20.970;2023-06-22T07:56:26;2.30;;;1.42;;
36061;SDS011;22123;52.412;20.970;2023-06-22T07:58:52;1.92;;;1.38;;
36061;SDS011;22123;52.412;20.970;2023-06-22T08:01:18;3.83;;;1.80;;
36061;SDS011;22123;52.412;20.970;2023-06-22T08:03:44;2.65;;;1.75;;
36061;SDS011;22123;52.412;20.970;2023-06-22T08:06:10;1.52;;;1.35;;
36061;SDS011;22123;52.412;20.970;2023-06-22T08:08:37;2.13;;;1.67;;
36061;SDS011;22123;52.412;20.970;2023-06-22T08:11:03;1.92;;;1.20;;
36061;SDS011;22123;52.412;20.970;2023-06-22T08:13:29;1.33;;;1.23;;
36061;SDS011;22123;52.412;20.970;2023-06-22T08:15:55;1.58;;;1.42;;
36061;SDS011;22123;52.412;20.970;2023-06-22T08:18:20;1.92;;;1.27;;
36061;SDS011;22123;52.412;20.970;2023-06-22T08:20:46;1.08;;;0.98;;
36061;SDS011;22123;52.412;20.970;2023-06-22T08:23:12;2.10;;;1.15;;
36061;SDS011;22123;52.412;20.970;2023-06-22T08:25:38;2.13;;;1.45;;
36061;SDS011;22123;52.412;20.970;2023-06-22T08:28:04;1.58;;;1.15;;
36061;SDS011;22123;52.412;20.970;2023-06-22T08:30:30;2.63;;;1.77;;
36061;SDS011;22123;52.412;20.970;2023-06-22T08:32:56;1.95;;;1.42;;
36061;SDS011;22123;52.412;20.970;2023-06-22T08:35:22;1.08;;;0.98;;
36061;SDS011;22123;52.412;20.970;2023-06-22T08:37:49;1.67;;;0.93;;
36061;SDS011;22123;52.412;20.970;2023-06-22T08:40:15;2.67;;;1.98;;
36061;SDS011;22123;52.412;20.970;2023-06-22T08:42:41;1.75;;;1.38;;
36061;SDS011;22123;52.412;20.970;2023-06-22T08:45:07;1.50;;;1.40;;
36061;SDS011;22123;52.412;20.970;2023-06-22T08:47:33;1.52;;;1.42;;
36061;SDS011;22123;52.412;20.970;2023-06-22T08:49:59;1.92;;;1.50;;
36061;SDS011;22123;52.412;20.970;2023-06-22T08:52:25;1.67;;;1.17;;
36061;SDS011;22123;52.412;20.970;2023-06-22T08:54:50;1.55;;;1.40;;
36061;SDS011;22123;52.412;20.970;2023-06-22T08:57:16;2.05;;;1.60;;
36061;SDS011;22123;52.412;20.970;2023-06-22T08:59:42;1.83;;;1.50;;
36061;SDS011;22123;52.412;20.970;2023-06-22T09:02:08;1.27;;;1.15;;
36061;SDS011;22123;52.412;20.970;2023-06-22T09:04:34;1.50;;;1.40;;
36061;SDS011;22123;52.412;20.970;2023-06-22T09:07:00;1.55;;;1.20;;
36061;SDS011;22123;52.412;20.970;2023-06-22T09:09:27;1.63;;;1.30;;
36061;SDS011;22123;52.412;20.970;2023-06-22T09:11:53;1.90;;;1.48;;
36061;SDS011;22123;52.412;20.970;2023-06-22T09:14:18;1.83;;;1.33;;
36061;SDS011;22123;52.412;20.970;2023-06-22T09:16:44;1.35;;;1.20;;
36061;SDS011;22123;52.412;20.970;2023-06-22T09:19:10;1.67;;;1.40;;
36061;SDS011;22123;52.412;20.970;2023-06-22T09:21:36;1.42;;;1.20;;
36061;SDS011;22123;52.412;20.970;2023-06-22T09:24:02;1.75;;;1.52;;
36061;SDS011;22123;52.412;20.970;2023-06-22T09:26:29;1.83;;;1.25;;
36061;SDS011;22123;52.412;20.970;2023-06-22T09:28:55;1.67;;;1.17;;
36061;SDS011;22123;52.412;20.970;2023-06-22T09:31:20;1.52;;;1.42;;
36061;SDS011;22123;52.412;20.970;2023-06-22T09:33:49;1.90;;;1.70;;
36061;SDS011;22123;52.412;20.970;2023-06-22T09:36:15;1.88;;;1.55;;
36061;SDS011;22123;52.412;20.970;2023-06-22T09:38:41;1.58;;;1.35;;
36061;SDS011;22123;52.412;20.970;2023-06-22T09:41:06;3.72;;;1.60;;
36061;SDS011;22123;52.412;20.970;2023-06-22T09:43:32;1.50;;;1.13;;
36061;SDS011;22123;52.412;20.970;2023-06-22T09:45:58;1.45;;;1.25;;
36061;SDS011;22123;52.412;20.970;2023-06-22T09:48:24;1.70;;;1.30;;
36061;SDS011;22123;52.412;20.970;2023-06-22T09:50:50;2.00;;;1.80;;
36061;SDS011;22123;52.412;20.970;2023-06-22T09:53:16;1.73;;;1.63;;
36061;SDS011;22123;52.412;20.970;2023-06-22T09:55:42;1.77;;;1.33;;
36061;SDS011;22123;52.412;20.970;2023-06-22T09:58:08;1.95;;;1.30;;
36061;SDS011;22123;52.412;20.970;2023-06-22T10:00:33;2.08;;;1.90;;
36061;SDS011;22123;52.412;20.970;2023-06-22T10:02:59;1.30;;;1.20;;
36061;SDS011;22123;52.412;20.970;2023-06-22T10:05:25;1.80;;;1.70;;
36061;SDS011;22123;52.412;20.970;2023-06-22T10:07:51;1.60;;;1.50;;
36061;SDS011;22123;52.412;20.970;2023-06-22T10:10:17;1.52;;;1.40;;
36061;SDS011;22123;52.412;20.970;2023-06-22T10:12:47;2.05;;;1.67;;
36061;SDS011;22123;52.412;20.970;2023-06-22T10:15:21;2.78;;;1.73;;
36061;SDS011;22123;52.412;20.970;2023-06-22T10:17:47;3.22;;;2.08;;
36061;SDS011;22123;52.412;20.970;2023-06-22T10:20:13;2.00;;;1.63;;
36061;SDS011;22123;52.412;20.970;2023-06-22T10:22:43;1.85;;;1.63;;
36061;SDS011;22123;52.412;20.970;2023-06-22T10:25:10;1.98;;;1.67;;
36061;SDS011;22123;52.412;20.970;2023-06-22T10:27:37;3.38;;;1.85;;
36061;SDS011;22123;52.412;20.970;2023-06-22T10:30:03;2.50;;;1.90;;
36061;SDS011;22123;52.412;20.970;2023-06-22T10:32:29;1.80;;;1.70;;
36061;SDS011;22123;52.412;20.970;2023-06-22T10:34:55;2.08;;;1.90;;
36061;SDS011;22123;52.412;20.970;2023-06-22T10:37:21;2.05;;;1.73;;
36061;SDS011;22123;52.412;20.970;2023-06-22T10:39:47;2.00;;;1.80;;
36061;SDS011;22123;52.412;20.970;2023-06-22T10:42:13;3.97;;;2.33;;
36061;SDS011;22123;52.412;20.970;2023-06-22T10:44:39;1.80;;;1.70;;
36061;SDS011;22123;52.412;20.970;2023-06-22T10:47:05;2.83;;;1.60;;
36061;SDS011;22123;52.412;20.970;2023-06-22T10:49:31;1.63;;;1.52;;
36061;SDS011;22123;52.412;20.970;2023-06-22T10:51:57;3.05;;;2.30;;
36061;SDS011;22123;52.412;20.970;2023-06-22T10:54:23;2.35;;;2.10;;
36061;SDS011;22123;52.412;20.970;2023-06-22T10:56:49;2.35;;;2.10;;
36061;SDS011;22123;52.412;20.970;2023-06-22T10:59:15;2.38;;;2.17;;
36061;SDS011;22123;52.412;20.970;2023-06-22T11:01:41;2.33;;;1.60;;
36061;SDS011;22123;52.412;20.970;2023-06-22T11:04:07;1.73;;;1.63;;
36061;SDS011;22123;52.412;20.970;2023-06-22T11:06:33;2.25;;;1.70;;
36061;SDS011;22123;52.412;20.970;2023-06-22T11:08:59;2.22;;;1.60;;
36061;SDS011;22123;52.412;20.970;2023-06-22T11:11:25;2.10;;;1.63;;
36061;SDS011;22123;52.412;20.970;2023-06-22T11:13:52;1.92;;;1.77;;
36061;SDS011;22123;52.412;20.970;2023-06-22T11:16:18;1.85;;;1.63;;
36061;SDS011;22123;52.412;20.970;2023-06-22T11:18:44;2.20;;;1.73;;
36061;SDS011;22123;52.412;20.970;2023-06-22T11:21:10;2.10;;;1.83;;
36061;SDS011;22123;52.412;20.970;2023-06-22T11:23:36;2.00;;;1.77;;
36061;SDS011;22123;52.412;20.970;2023-06-22T11:26:02;2.10;;;1.73;;
36061;SDS011;22123;52.412;20.970;2023-06-22T11:28:27;2.22;;;1.88;;
36061;SDS011;22123;52.412;20.970;2023-06-22T11:30:53;2.28;;;2.08;;
36061;SDS011;22123;52.412;20.970;2023-06-22T11:33:19;2.88;;;1.65;;
36061;SDS011;22123;52.412;20.970;2023-06-22T11:35:45;2.08;;;1.92;;
36061;SDS011;22123;52.412;20.970;2023-06-22T11:38:11;2.17;;;1.60;;
36061;SDS011;22123;52.412;20.970;2023-06-22T11:40:37;1.83;;;1.50;;
36061;SDS011;22123;52.412;20.970;2023-06-22T11:43:03;2.20;;;2.00;;
36061;SDS011;22123;52.412;20.970;2023-06-22T11:45:28;2.03;;;1.67;;
36061;SDS011;22123;52.412;20.970;2023-06-22T11:47:54;2.70;;;1.67;;
36061;SDS011;22123;52.412;20.970;2023-06-22T11:50:20;2.20;;;1.75;;
36061;SDS011;22123;52.412;20.970;2023-06-22T11:52:46;1.95;;;1.58;;
36061;SDS011;22123;52.412;20.970;2023-06-22T11:55:12;2.20;;;2.00;;
36061;SDS011;22123;52.412;20.970;2023-06-22T11:57:38;2.03;;;1.80;;
36061;SDS011;22123;52.412;20.970;2023-06-22T12:00:18;2.20;;;1.95;;
36061;SDS011;22123;52.412;20.970;2023-06-22T12:02:44;2.42;;;2.03;;
36061;SDS011;22123;52.412;20.970;2023-06-22T12:05:10;2.22;;;1.73;;
36061;SDS011;22123;52.412;20.970;2023-06-22T12:07:36;2.30;;;1.77;;
36061;SDS011;22123;52.412;20.970;2023-06-22T12:10:02;2.58;;;2.22;;
36061;SDS011;22123;52.412;20.970;2023-06-22T12:12:28;3.20;;;2.03;;
36061;SDS011;22123;52.412;20.970;2023-06-22T12:14:54;1.50;;;1.40;;
36061;SDS011;22123;52.412;20.970;2023-06-22T12:17:20;2.03;;;1.63;;
36061;SDS011;22123;52.412;20.970;2023-06-22T12:19:46;2.30;;;1.85;;
36061;SDS011;22123;52.412;20.970;2023-06-22T12:22:11;2.20;;;1.98;;
36061;SDS011;22123;52.412;20.970;2023-06-22T12:24:37;1.70;;;1.60;;
36061;SDS011;22123;52.412;20.970;2023-06-22T12:27:03;3.38;;;2.33;;
36061;SDS011;22123;52.412;20.970;2023-06-22T12:29:29;1.90;;;1.50;;
36061;SDS011;22123;52.412;20.970;2023-06-22T12:31:55;2.63;;;2.30;;
36061;SDS011;22123;52.412;20.970;2023-06-22T12:34:21;2.40;;;1.88;;
36061;SDS011;22123;52.412;20.970;2023-06-22T12:36:47;2.75;;;2.03;;
36061;SDS011;22123;52.412;20.970;2023-06-22T12:39:13;2.20;;;1.83;;
36061;SDS011;22123;52.412;20.970;2023-06-22T12:41:39;3.08;;;2.10;;
36061;SDS011;22123;52.412;20.970;2023-06-22T12:44:05;3.72;;;2.33;;
36061;SDS011;22123;52.412;20.970;2023-06-22T12:46:31;2.92;;;1.98;;
36061;SDS011;22123;52.412;20.970;2023-06-22T12:48:57;2.22;;;1.95;;
36061;SDS011;22123;52.412;20.970;2023-06-22T12:51:23;2.53;;;1.75;;
36061;SDS011;22123;52.412;20.970;2023-06-22T12:53:49;2.70;;;1.92;;
36061;SDS011;22123;52.412;20.970;2023-06-22T12:56:15;2.72;;;2.40;;
36061;SDS011;22123;52.412;20.970;2023-06-22T12:58:40;2.67;;;1.83;;
36061;SDS011;22123;52.412;20.970;2023-06-22T13:01:06;3.03;;;2.05;;
36061;SDS011;22123;52.412;20.970;2023-06-22T13:03:32;3.30;;;1.85;;
36061;SDS011;22123;52.412;20.970;2023-06-22T13:05:58;3.70;;;2.17;;
36061;SDS011;22123;52.412;20.970;2023-06-22T13:08:24;3.75;;;2.17;;
36061;SDS011;22123;52.412;20.970;2023-06-22T13:10:50;2.72;;;1.80;;
36061;SDS011;22123;52.412;20.970;2023-06-22T13:13:16;3.15;;;2.00;;
36061;SDS011;22123;52.412;20.970;2023-06-22T13:15:41;2.05;;;1.85;;
36061;SDS011;22123;52.412;20.970;2023-06-22T13:18:07;2.70;;;1.92;;
36061;SDS011;22123;52.412;20.970;2023-06-22T13:20:33;2.15;;;1.63;;
36061;SDS011;22123;52.412;20.970;2023-06-22T13:22:59;2.65;;;2.03;;
36061;SDS011;22123;52.412;20.970;2023-06-22T13:25:25;2.13;;;1.83;;
36061;SDS011;22123;52.412;20.970;2023-06-22T13:27:51;3.92;;;1.73;;
36061;SDS011;22123;52.412;20.970;2023-06-22T13:30:17;1.65;;;1.55;;
36061;SDS011;22123;52.412;20.970;2023-06-22T13:32:43;2.53;;;1.70;;
36061;SDS011;22123;52.412;20.970;2023-06-22T13:35:09;3.38;;;1.70;;
36061;SDS011;22123;52.412;20.970;2023-06-22T13:37:36;2.22;;;1.73;;
36061;SDS011;22123;52.412;20.970;2023-06-22T13:40:02;1.33;;;1.23;;
36061;SDS011;22123;52.412;20.970;2023-06-22T13:42:28;1.30;;;1.13;;
36061;SDS011;22123;52.412;20.970;2023-06-22T13:44:54;2.67;;;1.38;;
36061;SDS011;22123;52.412;20.970;2023-06-22T13:47:20;1.67;;;1.40;;
36061;SDS011;22123;52.412;20.970;2023-06-22T13:49:45;2.00;;;1.65;;
36061;SDS011;22123;52.412;20.970;2023-06-22T13:52:11;1.83;;;1.60;;
36061;SDS011;22123;52.412;20.970;2023-06-22T13:54:37;2.17;;;1.63;;
36061;SDS011;22123;52.412;20.970;2023-06-22T13:57:03;2.40;;;1.48;;
36061;SDS011;22123;52.412;20.970;2023-06-22T13:59:29;1.33;;;1.23;;
36061;SDS011;22123;52.412;20.970;2023-06-22T14:01:55;2.60;;;1.60;;
36061;SDS011;22123;52.412;20.970;2023-06-22T14:04:22;2.83;;;1.80;;
36061;SDS011;22123;52.412;20.970;2023-06-22T14:06:48;1.88;;;1.60;;
36061;SDS011;22123;52.412;20.970;2023-06-22T14:09:14;3.75;;;1.80;;
36061;SDS011;22123;52.412;20.970;2023-06-22T14:11:40;2.13;;;1.83;;
36061;SDS011;22123;52.412;20.970;2023-06-22T14:14:06;2.42;;;1.60;;
36061;SDS011;22123;52.412;20.970;2023-06-22T14:16:32;1.77;;;1.48;;
36061;SDS011;22123;52.412;20.970;2023-06-22T14:18:58;3.28;;;1.73;;
36061;SDS011;22123;52.412;20.970;2023-06-22T14:21:25;2.17;;;1.70;;
36061;SDS011;22123;52.412;20.970;2023-06-22T14:23:51;1.80;;;1.70;;
36061;SDS011;22123;52.412;20.970;2023-06-22T14:26:17;3.22;;;2.10;;
36061;SDS011;22123;52.412;20.970;2023-06-22T14:28:47;2.47;;;1.75;;
36061;SDS011;22123;52.412;20.970;2023-06-22T14:31:14;3.53;;;1.60;;
36061;SDS011;22123;52.412;20.970;2023-06-22T14:33:45;2.53;;;1.95;;
36061;SDS011;22123;52.412;20.970;2023-06-22T14:36:14;1.60;;;1.40;;
36061;SDS011;22123;52.412;20.970;2023-06-22T14:38:41;2.13;;;1.70;;
36061;SDS011;22123;52.412;20.970;2023-06-22T14:41:07;2.17;;;1.95;;
36061;SDS011;22123;52.412;20.970;2023-06-22T14:43:33;2.58;;;1.50;;
36061;SDS011;22123;52.412;20.970;2023-06-22T14:45:58;2.05;;;1.60;;
36061;SDS011;22123;52.412;20.970;2023-06-22T14:48:24;2.65;;;2.00;;
36061;SDS011;22123;52.412;20.970;2023-06-22T14:50:50;2.53;;;1.58;;
36061;SDS011;22123;52.412;20.970;2023-06-22T14:53:16;2.25;;;1.65;;
36061;SDS011;22123;52.412;20.970;2023-06-22T14:55:42;1.63;;;1.52;;
36061;SDS011;22123;52.412;20.970;2023-06-22T14:58:09;2.65;;;1.55;;
36061;SDS011;22123;52.412;20.970;2023-06-22T15:00:35;2.67;;;1.75;;
36061;SDS011;22123;52.412;20.970;2023-06-22T15:03:01;1.95;;;1.45;;
36061;SDS011;22123;52.412;20.970;2023-06-22T15:05:27;2.80;;;1.98;;
36061;SDS011;22123;52.412;20.970;2023-06-22T15:07:53;1.50;;;1.40;;
36061;SDS011;22123;52.412;20.970;2023-06-22T15:10:19;1.80;;;1.48;;
36061;SDS011;22123;52.412;20.970;2023-06-22T15:12:44;2.53;;;1.48;;
36061;SDS011;22123;52.412;20.970;2023-06-22T15:15:10;2.05;;;1.60;;